Time;durP1;ratioP1;P1;durP2;ratioP2;P2;SDS_P1;SDS_P2;PMS_P1;PMS_P2;Temp;Humidity;BMP_temperature;BMP_pressure;BME280_temperature;BME280_humidity;BME280_pressure;Samples;Min_cycle;Max_cycle;Signal;HPM_P1;HPM_P2
2022/03/21 00:01:07;;;;;;;;;63.50;44.75;;;;;9.90;51.33;102354.38;5059881;28;45698;-68
2022/03/21 00:03:32;;;;;;;;;65.50;48.25;;;;;9.87;51.44;102359.56;5059968;28;45265;-68
2022/03/21 00:05:59;;;;;;;;;66.25;45.25;;;;;9.83;51.49;102349.19;5059389;28;45382;-68
2022/03/21 00:08:25;;;;;;;;;63.25;50.25;;;;;9.81;52.06;102354.38;5056390;28;45371;-68
2022/03/21 00:10:52;;;;;;;;;72.00;51.25;;;;;9.81;51.85;102353.47;5053216;28;46335;-69
2022/03/21 00:13:19;;;;;;;;;61.75;46.50;;;;;9.77;51.84;102357.81;5059842;28;45390;-67
2022/03/21 00:15:46;;;;;;;;;64.50;50.00;;;;;9.75;52.08;102355.19;5053237;28;45540;-67
2022/03/21 00:18:13;;;;;;;;;65.00;46.00;;;;;9.70;52.59;102356.94;5059338;28;47002;-68
2022/03/21 00:20:40;;;;;;;;;63.50;47.50;;;;;9.69;52.14;102359.53;5059174;28;45686;-66
2022/03/21 00:23:06;;;;;;;;;61.50;47.25;;;;;9.66;51.88;102355.19;5057957;28;45434;-67
2022/03/21 00:25:32;;;;;;;;;62.75;48.75;;;;;9.63;52.87;102362.13;5059555;28;45350;-67
2022/03/21 00:27:58;;;;;;;;;63.25;49.00;;;;;9.59;52.12;102360.34;5059433;28;45459;-68
2022/03/21 00:30:26;;;;;;;;;67.75;50.25;;;;;9.57;52.96;102356.88;5058982;28;45317;-67
2022/03/21 00:32:52;;;;;;;;;65.50;47.25;;;;;9.53;53.46;102357.75;5056626;28;45468;-67
2022/03/21 00:35:18;;;;;;;;;65.75;48.00;;;;;9.44;53.07;102356.88;5055166;28;45421;-67
2022/03/21 00:37:44;;;;;;;;;68.25;50.25;;;;;9.46;53.73;102362.06;5055744;28;45296;-67
2022/03/21 00:40:11;;;;;;;;;64.50;48.00;;;;;9.41;54.40;102350.78;5054585;28;45746;-66
2022/03/21 00:42:38;;;;;;;;;67.25;46.75;;;;;9.39;54.22;102355.09;5052365;28;45501;-69
2022/03/21 00:45:12;;;;;;;;;69.25;48.50;;;;;9.40;54.61;102352.50;5057384;28;45571;-69
2022/03/21 00:47:39;;;;;;;;;67.25;48.00;;;;;9.40;54.23;102356.84;5054714;28;45440;-71
2022/03/21 00:50:09;;;;;;;;;68.00;49.00;;;;;9.37;54.66;102357.69;5059375;28;45516;-69
2022/03/21 00:52:43;;;;;;;;;68.25;49.75;;;;;9.35;55.21;102348.19;5060251;28;45395;-69
2022/03/21 00:55:09;;;;;;;;;66.25;43.75;;;;;9.33;54.93;102349.91;5062941;28;45520;-69
2022/03/21 00:57:36;;;;;;;;;63.75;47.75;;;;;9.32;54.93;102346.44;5062631;28;46367;-69
2022/03/21 01:00:08;;;;;;;;;47.50;40.75;;;;;9.30;54.98;102345.56;5062907;28;45402;-69
2022/03/21 01:02:35;;;;;;;;;65.50;49.00;;;;;9.32;55.22;102348.16;5062554;28;45548;-68
2022/03/21 01:05:00;;;;;;;;;61.25;45.75;;;;;9.33;55.33;102353.38;5063116;28;45288;-67
2022/03/21 01:07:26;;;;;;;;;66.00;47.00;;;;;9.33;55.36;102353.38;5062547;28;46123;-67
2022/03/21 01:09:51;;;;;;;;;64.00;48.75;;;;;9.35;55.08;102351.63;5062974;28;45806;-67
2022/03/21 01:12:17;;;;;;;;;59.25;46.00;;;;;9.32;55.17;102349.03;5062487;28;45318;-66
2022/03/21 01:14:42;;;;;;;;;62.75;46.75;;;;;9.33;56.00;102358.56;5063029;28;45264;-66
2022/03/21 01:17:07;;;;;;;;;56.50;43.00;;;;;9.30;55.67;102355.94;5062201;28;45323;-67
2022/03/21 01:19:33;;;;;;;;;61.50;43.25;;;;;9.28;55.32;102347.31;5061359;28;45388;-67
2022/03/21 01:21:58;;;;;;;;;63.50;49.00;;;;;9.27;56.07;102345.56;5062168;28;45409;-66
2022/03/21 01:24:25;;;;;;;;;66.75;46.00;;;;;9.27;55.56;102347.28;5062648;28;45383;-66
2022/03/21 01:26:51;;;;;;;;;68.75;48.25;;;;;9.26;55.75;102351.63;5062284;28;46455;-66
2022/03/21 01:29:17;;;;;;;;;58.50;43.25;;;;;9.26;55.74;102359.41;5060816;28;45639;-68
2022/03/21 01:31:42;;;;;;;;;56.75;40.00;;;;;9.24;56.11;102350.75;5062463;28;45347;-68
2022/03/21 01:34:08;;;;;;;;;60.25;47.75;;;;;9.22;55.97;102357.66;5062272;28;45507;-67
2022/03/21 01:36:33;;;;;;;;;62.00;44.25;;;;;9.20;55.95;102354.16;5062042;28;45591;-68
2022/03/21 01:38:58;;;;;;;;;64.50;44.50;;;;;9.17;55.88;102348.97;5062465;28;45233;-68
2022/03/21 01:41:24;;;;;;;;;63.75;47.25;;;;;9.15;55.94;102351.56;5062436;28;45212;-68
2022/03/21 01:43:57;;;;;;;;;66.75;48.25;;;;;9.16;56.65;102355.03;5062069;28;45554;-68
2022/03/21 01:46:23;;;;;;;;;57.75;47.75;;;;;9.14;56.54;102359.34;5060641;28;46192;-68
2022/03/21 01:48:48;;;;;;;;;60.75;44.00;;;;;9.13;56.66;102355.88;5062179;28;45575;-68
2022/03/21 01:51:14;;;;;;;;;66.25;50.50;;;;;9.11;56.14;102357.59;5062014;28;45248;-68
2022/03/21 01:56:25;;;;;;;;;57.75;45.25;;;;;9.07;56.92;102355.00;5061687;28;45303;-68
2022/03/21 01:58:50;;;;;;;;;60.00;45.75;;;;;9.07;56.83;102357.59;5060542;28;46017;-67
2022/03/21 02:01:16;;;;;;;;;65.25;46.25;;;;;9.05;57.01;102357.59;5060840;28;45425;-67
2022/03/21 02:03:41;;;;;;;;;63.00;44.75;;;;;9.06;56.62;102358.44;5094399;27;45806;-67
2022/03/21 02:06:07;;;;;;;;;61.75;43.50;;;;;9.08;57.00;102357.59;5061614;28;45309;-67
2022/03/21 02:08:32;;;;;;;;;61.00;47.25;;;;;9.10;56.98;102362.78;5061879;28;45450;-67
2022/03/21 02:10:57;;;;;;;;;53.75;43.25;;;;;9.11;57.10;102365.38;5062009;28;45825;-70
2022/03/21 02:13:23;;;;;;;;;65.25;48.00;;;;;9.11;56.75;102361.91;5061648;28;45457;-70
2022/03/21 02:15:48;;;;;;;;;62.25;46.00;;;;;9.07;56.83;102352.41;5061570;28;45446;-71
2022/03/21 02:18:17;;;;;;;;;58.75;46.50;;;;;9.05;57.12;102361.91;5060309;28;45305;-70
2022/03/21 02:20:44;;;;;;;;;67.25;49.75;;;;;9.03;57.47;102353.25;5061231;28;46391;-71
2022/03/21 02:23:48;;;;;;;;;59.00;47.00;;;;;8.98;57.54;102347.16;5061749;28;45383;-71
2022/03/21 02:26:15;;;;;;;;;62.75;43.75;;;;;8.97;57.52;102354.06;5052624;28;46481;-73
2022/03/21 02:28:42;;;;;;;;;58.25;45.00;;;;;8.95;57.61;102352.31;5060811;28;45312;-70
2022/03/21 02:31:08;;;;;;;;;59.50;42.50;;;;;8.92;56.99;102355.78;5061579;28;45268;-69
2022/03/21 02:33:34;;;;;;;;;70.00;50.75;;;;;8.87;56.97;102351.44;5060958;28;45333;-69
2022/03/21 02:36:03;;;;;;;;;63.25;45.00;;;;;8.81;58.03;102332.41;5061493;28;46277;-69
2022/03/21 02:38:30;;;;;;;;;56.00;43.75;;;;;8.80;58.23;102340.16;5061334;28;45825;-71
2022/03/21 02:40:55;;;;;;;;;72.25;47.75;;;;;8.79;57.91;102335.81;5061640;28;45401;-70
2022/03/21 02:43:20;;;;;;;;;61.50;44.75;;;;;8.76;58.08;102321.13;5060935;28;45218;-70
2022/03/21 02:45:46;;;;;;;;;56.75;44.75;;;;;8.77;58.56;102324.56;5061262;28;45351;-70
2022/03/21 02:48:13;;;;;;;;;58.33;44.00;;;;;8.77;58.23;102329.75;5061015;28;45386;-71
2022/03/21 02:50:49;;;;;;;;;57.00;44.00;;;;;8.76;58.42;102323.72;5059901;28;45407;-71
2022/03/21 02:53:16;;;;;;;;;59.00;44.00;;;;;8.75;58.47;102329.75;5061155;28;45442;-71
2022/03/21 02:55:42;;;;;;;;;56.00;45.00;;;;;8.75;58.56;102334.94;5061071;28;45444;-71
2022/03/21 02:58:07;;;;;;;;;58.75;47.00;;;;;8.72;58.82;102332.34;5060779;28;45172;-71
2022/03/21 03:00:33;;;;;;;;;57.00;44.25;;;;;8.72;58.79;102334.94;5061039;28;45331;-68
2022/03/21 03:02:58;;;;;;;;;62.00;44.25;;;;;8.71;59.13;102334.94;5058340;28;45359;-69
2022/03/21 03:05:23;;;;;;;;;60.75;47.50;;;;;8.71;59.08;102333.19;5058523;28;45326;-69
2022/03/21 03:07:49;;;;;;;;;61.50;50.00;;;;;8.70;58.86;102336.66;5058302;28;45342;-68
2022/03/21 03:10:14;;;;;;;;;56.25;44.00;;;;;8.68;58.71;102340.09;5058584;28;45417;-66
2022/03/21 03:12:41;;;;;;;;;58.75;44.00;;;;;8.69;59.63;102332.31;5058217;28;45316;-67
2022/03/21 03:15:07;;;;;;;;;62.75;41.75;;;;;8.69;59.40;102334.91;5059115;28;46349;-68
2022/03/21 03:17:32;;;;;;;;;57.25;44.75;;;;;8.66;58.97;102328.84;5059876;28;45348;-67
2022/03/21 03:19:57;;;;;;;;;61.75;44.00;;;;;8.70;59.10;102333.19;5060756;28;45281;-67
2022/03/21 03:22:25;;;;;;;;;59.50;44.25;;;;;8.69;59.26;102329.72;5060112;28;45307;-67
2022/03/21 03:24:51;;;;;;;;;53.75;43.25;;;;;8.71;59.50;102335.78;5059524;28;46539;-69
2022/03/21 03:27:16;;;;;;;;;54.50;43.00;;;;;8.71;59.56;102333.19;5060335;28;45236;-67
2022/03/21 03:29:42;;;;;;;;;59.50;41.75;;;;;8.73;59.43;102339.25;5060318;28;45304;-67
2022/03/21 03:32:08;;;;;;;;;57.25;45.25;;;;;8.72;59.71;102337.53;5060271;28;45646;-66
2022/03/21 03:34:34;;;;;;;;;62.75;44.00;;;;;8.74;59.83;102340.13;5060533;28;45249;-66
2022/03/21 03:37:00;;;;;;;;;58.50;42.00;;;;;8.76;60.04;102341.00;5060180;28;45228;-67
2022/03/21 03:39:26;;;;;;;;;48.50;38.75;;;;;8.75;59.71;102347.03;5060753;28;45213;-68
2022/03/21 03:41:52;;;;;;;;;64.50;48.75;;;;;8.76;59.87;102347.03;5060032;28;45288;-66
2022/03/21 03:44:18;;;;;;;;;60.50;45.75;;;;;8.73;59.71;102341.84;5060277;28;45374;-67
2022/03/21 03:46:44;;;;;;;;;58.50;45.75;;;;;8.74;59.58;102346.16;5060117;28;45386;-67
2022/03/21 03:49:09;;;;;;;;;60.50;46.75;;;;;8.77;60.16;102348.78;5060190;28;45360;-67
2022/03/21 03:51:35;;;;;;;;;67.25;47.25;;;;;8.78;59.78;102352.22;5059981;28;45377;-66
2022/03/21 03:54:00;;;;;;;;;62.50;46.50;;;;;8.77;59.75;102353.09;5058806;28;47083;-67
2022/03/21 03:56:25;;;;;;;;;64.00;45.50;;;;;8.78;60.12;102355.69;5059893;28;45325;-66
2022/03/21 03:58:51;;;;;;;;;57.75;45.25;;;;;8.80;59.93;102361.75;5060233;28;45755;-67
2022/03/21 04:01:16;;;;;;;;;57.75;44.25;;;;;8.78;59.70;102349.63;5059998;28;45190;-68
2022/03/21 04:03:44;;;;;;;;;55.25;40.50;;;;;8.86;59.43;102347.97;5059769;28;46233;-67
2022/03/21 04:06:11;;;;;;;;;63.50;44.75;;;;;8.86;59.34;102353.16;5059922;28;45413;-68
2022/03/21 04:08:36;;;;;;;;;54.25;44.25;;;;;8.84;60.16;102350.56;5060302;28;45359;-68
2022/03/21 04:11:02;;;;;;;;;54.25;38.50;;;;;8.87;60.32;102354.88;5059846;28;45346;-68
2022/03/21 04:13:28;;;;;;;;;56.00;44.00;;;;;8.93;59.93;102362.69;5059792;28;45595;-68
2022/03/21 04:15:53;;;;;;;;;60.50;44.50;;;;;8.94;60.54;102361.84;5059637;28;45362;-68
2022/03/21 04:18:20;;;;;;;;;68.25;47.00;;;;;8.97;59.85;102367.03;5059951;28;45373;-68
2022/03/21 04:20:45;;;;;;;;;59.75;45.25;;;;;9.01;59.91;102365.31;5059362;28;46799;-69
2022/03/21 04:23:11;;;;;;;;;60.50;44.50;;;;;9.03;60.24;102374.88;5059449;28;45531;-69
2022/03/21 04:25:37;;;;;;;;;61.25;46.50;;;;;9.06;60.63;102381.78;5059266;28;45833;-69
2022/03/21 04:28:14;;;;;;;;;63.75;41.50;;;;;9.06;60.02;102361.03;5059668;28;45436;-69
2022/03/21 04:30:39;;;;;;;;;58.75;44.00;;;;;9.05;59.72;102364.50;5058583;28;45497;-69
2022/03/21 04:33:05;;;;;;;;;60.00;42.50;;;;;9.06;60.28;102369.69;5057977;28;47133;-69
2022/03/21 04:35:31;;;;;;;;;60.75;45.75;;;;;9.06;60.74;102374.00;5059354;28;45341;-69
2022/03/21 04:37:57;;;;;;;;;62.50;42.75;;;;;9.09;60.45;102376.63;5059761;28;45435;-69
2022/03/21 04:40:25;;;;;;;;;58.50;44.25;;;;;9.09;60.45;102381.78;5059505;28;45457;-69
2022/03/21 04:42:50;;;;;;;;;58.00;45.25;;;;;9.10;60.23;102381.81;5059185;28;46015;-69
2022/03/21 04:45:18;;;;;;;;;56.00;45.00;;;;;9.09;60.28;102374.88;5059511;28;45329;-70
2022/03/21 04:47:45;;;;;;;;;59.75;44.50;;;;;9.10;60.80;102387.00;5059256;28;45221;-65
2022/03/21 04:50:11;;;;;;;;;63.25;45.00;;;;;9.10;61.36;102380.94;5059546;28;45319;-67
2022/03/21 04:52:36;;;;;;;;;63.75;45.25;;;;;9.14;61.40;102395.66;5059267;28;46246;-67
2022/03/21 04:55:03;;;;;;;;;61.25;45.00;;;;;9.16;61.88;102388.75;5059393;28;45429;-67
2022/03/21 04:57:29;;;;;;;;;59.50;48.25;;;;;9.16;61.45;102388.75;5059134;28;45342;-68
2022/03/21 04:59:55;;;;;;;;;62.25;47.50;;;;;9.20;60.52;102390.47;5059504;28;45366;-69
2022/03/21 05:02:20;;;;;;;;;52.00;40.75;;;;;9.24;60.88;102392.25;5058638;28;46106;-69
2022/03/21 05:04:46;;;;;;;;;60.00;44.75;;;;;9.25;60.80;102395.72;5059322;28;45418;-69
2022/03/21 05:07:12;;;;;;;;;59.00;44.00;;;;;9.26;60.78;102392.25;5058995;28;45398;-66
2022/03/21 05:09:40;;;;;;;;;61.00;44.50;;;;;9.30;60.72;102394.00;5059203;28;45406;-65
2022/03/21 05:12:08;;;;;;;;;63.00;49.50;;;;;9.31;60.67;102390.53;5058714;28;46193;-67
2022/03/21 05:14:33;;;;;;;;;62.00;45.50;;;;;9.28;60.70;102390.53;5059163;28;45311;-67
2022/03/21 05:17:02;;;;;;;;;58.50;44.75;;;;;9.26;61.01;102397.44;5058890;28;45405;-68
2022/03/21 05:19:28;;;;;;;;;40.25;24.00;;;;;9.26;60.76;102395.72;5059183;28;45475;-68
2022/03/21 05:21:53;;;;;;;;;62.00;42.50;;;;;9.24;60.54;102397.44;5058394;28;46205;-68
2022/03/21 05:32:32;;;;;;;;;58.50;44.00;;;;;9.29;60.95;102403.50;5048078;28;45371;-72
2022/03/21 05:37:41;;;;;;;;;65.00;47.75;;;;;9.25;60.89;102398.31;5062593;28;45430;-70
2022/03/21 05:42:52;;;;;;;;;61.50;44.75;;;;;9.21;60.98;102392.25;5061803;28;45655;-72
2022/03/21 05:45:19;;;;;;;;;61.00;46.00;;;;;9.23;60.97;102397.44;5062189;28;45263;-68
2022/03/21 05:50:32;;;;;;;;;59.75;43.25;;;;;9.27;61.83;102417.34;5053493;28;45485;-68
2022/03/21 05:52:58;;;;;;;;;62.50;43.50;;;;;9.26;61.53;102406.09;5061392;28;45272;-68
2022/03/21 05:55:23;;;;;;;;;63.50;48.00;;;;;9.29;61.50;102419.06;5061699;28;45329;-66
2022/03/21 05:57:49;;;;;;;;;63.25;44.50;;;;;9.29;61.71;102428.59;5061601;28;45317;-66
2022/03/21 06:00:20;;;;;;;;;52.25;43.00;;;;;9.26;61.62;102421.66;5094607;27;45502;-65
2022/03/21 06:02:45;;;;;;;;;55.75;43.00;;;;;9.22;61.86;102419.91;5061302;28;46466;-65
2022/03/21 06:05:11;;;;;;;;;66.75;50.00;;;;;9.23;61.59;102421.66;5060526;28;45409;-67
2022/03/21 06:07:37;;;;;;;;;61.25;44.00;;;;;9.23;61.70;102423.38;5061818;28;45390;-69
2022/03/21 06:10:02;;;;;;;;;65.00;49.50;;;;;9.22;61.78;102429.44;5061765;28;45501;-66
2022/03/21 06:12:30;;;;;;;;;61.00;49.25;;;;;9.22;62.49;102429.44;5093889;27;47961;-64
2022/03/21 06:14:56;;;;;;;;;64.75;48.00;;;;;9.22;63.03;102443.25;5060254;28;45327;-65
2022/03/21 06:17:21;;;;;;;;;61.50;46.75;;;;;9.20;62.49;102434.56;5061294;28;45322;-65
2022/03/21 06:19:46;;;;;;;;;62.50;44.25;;;;;9.17;62.45;102429.38;5061461;28;45509;-66
2022/03/21 06:22:12;;;;;;;;;61.75;43.75;;;;;9.20;62.40;102439.75;5060384;28;46265;-65
2022/03/21 06:24:37;;;;;;;;;62.00;45.25;;;;;9.21;62.47;102445.81;5061671;28;45372;-62
2022/03/21 06:27:03;;;;;;;;;62.75;47.25;;;;;9.24;62.28;102451.06;5060981;28;45608;-63
2022/03/21 06:29:28;;;;;;;;;57.00;40.25;;;;;9.26;62.58;102463.16;5060903;28;45205;-63
2022/03/21 06:31:53;;;;;;;;;67.25;48.00;;;;;9.30;62.76;102459.72;5060385;28;45288;-63
2022/03/21 06:34:19;;;;;;;;;62.25;49.00;;;;;9.33;62.32;102467.53;5061168;28;45136;-64
2022/03/21 06:36:44;;;;;;;;;61.25;45.50;;;;;9.36;62.65;102464.06;5060652;28;45562;-64
2022/03/21 06:39:09;;;;;;;;;53.00;41.50;;;;;9.42;62.29;102471.91;5060914;28;45420;-64
2022/03/21 06:41:35;;;;;;;;;62.50;48.00;;;;;9.49;62.96;102475.38;5060644;28;45235;-64
2022/03/21 06:44:00;;;;;;;;;66.00;47.75;;;;;9.52;62.29;102480.59;5061219;28;45312;-69
2022/03/21 06:46:27;;;;;;;;;67.00;49.00;;;;;9.61;62.95;102484.13;5060309;28;45212;-68
2022/03/21 06:48:52;;;;;;;;;61.00;46.50;;;;;9.69;62.42;102489.31;5059548;28;45242;-63
2022/03/21 06:51:18;;;;;;;;;61.50;47.25;;;;;9.76;62.05;102483.28;5059286;28;48118;-60
2022/03/21 06:53:43;;;;;;;;;70.00;50.00;;;;;9.83;62.71;102485.06;5060776;28;45369;-65
2022/03/21 06:56:09;;;;;;;;;67.00;50.50;;;;;9.90;62.09;102502.38;5060486;28;45401;-66
2022/03/21 06:58:34;;;;;;;;;60.75;48.50;;;;;9.93;62.05;102488.53;5060600;28;45224;-64
2022/03/21 07:00:59;;;;;;;;;71.00;49.67;;;;;9.98;61.98;102495.47;5060626;28;45241;-66
2022/03/21 07:03:25;;;;;;;;;67.75;51.00;;;;;10.01;62.38;102492.91;5060387;28;45314;-66
2022/03/21 07:05:50;;;;;;;;;65.00;43.75;;;;;10.05;62.02;102489.47;5060672;28;45327;-65
2022/03/21 07:08:17;;;;;;;;;63.50;48.50;;;;;10.15;62.73;102490.34;5060556;28;45338;-66
2022/03/21 07:10:44;;;;;;;;;62.50;48.25;;;;;10.23;62.26;102499.06;5060330;28;46252;-68
2022/03/21 07:13:10;;;;;;;;;71.25;50.00;;;;;10.28;62.20;102496.47;5060593;28;45172;-65
2022/03/21 07:15:39;;;;;;;;;64.75;50.25;;;;;10.40;62.67;102503.41;5060658;28;45252;-68
2022/03/21 07:18:05;;;;;;;;;61.00;46.00;;;;;10.48;61.67;102506.91;5060355;28;45245;-68
2022/03/21 07:20:31;;;;;;;;;72.00;49.00;;;;;10.56;62.26;102503.41;5059690;28;46133;-65
2022/03/21 07:22:58;;;;;;;;;61.00;48.00;;;;;10.63;62.05;102509.50;5060686;28;45247;-66
2022/03/21 07:25:24;;;;;;;;;63.50;47.75;;;;;10.72;61.71;102513.84;5060054;28;45241;-66
2022/03/21 07:27:50;;;;;;;;;67.75;50.50;;;;;10.80;61.83;102506.88;5059686;28;45582;-66
2022/03/21 07:30:17;;;;;;;;;67.75;51.00;;;;;10.87;61.68;102506.91;5059540;28;45326;-67
2022/03/21 07:32:43;;;;;;;;;64.25;49.00;;;;;10.95;61.14;102502.56;5059923;28;45401;-66
2022/03/21 07:35:10;;;;;;;;;68.00;51.00;;;;;11.06;60.80;102501.69;5060030;28;45474;-67
2022/03/21 07:37:50;;;;;;;;;69.25;49.50;;;;;11.20;61.04;102497.31;5060552;28;45534;-66
2022/03/21 07:40:16;;;;;;;;;66.50;49.00;;;;;11.33;60.96;102503.38;5060045;28;45599;-67
2022/03/21 07:42:44;;;;;;;;;60.00;43.25;;;;;11.48;60.84;102505.94;5060060;28;45773;-67
2022/03/21 07:47:55;;;;;;;;;63.75;48.50;;;;;11.87;60.12;102510.16;5059985;28;45354;-67
2022/03/21 07:50:22;;;;;;;;;66.00;50.75;;;;;12.03;59.64;102513.56;5092358;27;47210;-69
2022/03/21 07:52:48;;;;;;;;;68.25;49.75;;;;;12.17;59.42;102507.38;5059787;28;45227;-67
2022/03/21 07:55:13;;;;;;;;;61.75;49.50;;;;;12.32;59.27;102497.75;5059768;28;45201;-67
2022/03/21 07:57:39;;;;;;;;;64.25;48.25;;;;;12.55;58.88;102514.09;5059505;28;45216;-67
2022/03/21 08:00:09;;;;;;;;;63.75;46.50;;;;;12.72;58.72;102513.97;5058653;28;45283;-67
2022/03/21 08:02:35;;;;;;;;;64.75;48.50;;;;;12.88;58.17;102502.53;5058266;28;45375;-67
2022/03/21 08:05:01;;;;;;;;;62.25;46.25;;;;;13.04;57.93;102506.75;5060098;28;45426;-67
2022/03/21 08:07:27;;;;;;;;;58.50;42.25;;;;;13.19;57.49;102503.13;5059833;28;45331;-69
2022/03/21 08:09:53;;;;;;;;;58.25;42.00;;;;;13.40;57.14;102508.13;5059765;28;45350;-67
2022/03/21 08:12:18;;;;;;;;;52.75;39.25;;;;;13.54;56.76;102512.34;5059334;28;45374;-67
2022/03/21 08:14:44;;;;;;;;;58.25;45.00;;;;;13.66;56.54;102517.44;5058789;28;45226;-67
2022/03/21 08:17:09;;;;;;;;;56.50;41.25;;;;;13.77;56.16;102520.75;5059171;28;45160;-67
2022/03/21 08:19:35;;;;;;;;;56.25;40.00;;;;;13.92;55.69;102515.34;5059731;28;45979;-67
2022/03/21 08:22:01;;;;;;;;;54.00;40.50;;;;;14.06;55.54;102520.41;5059116;28;45244;-67
2022/03/21 08:24:26;;;;;;;;;51.00;40.00;;;;;14.18;54.79;102515.00;5059973;28;45356;-67
2022/03/21 08:26:54;;;;;;;;;57.50;41.50;;;;;14.20;54.23;102513.22;5059372;28;45371;-66
2022/03/21 08:29:19;;;;;;;;;53.00;43.00;;;;;14.16;53.80;102508.91;5059099;28;46133;-66
2022/03/21 08:31:44;;;;;;;;;54.75;41.00;;;;;14.16;54.23;102518.53;5059170;28;45354;-66
2022/03/21 08:34:10;;;;;;;;;46.50;40.50;;;;;14.21;53.98;102525.41;5059885;28;45385;-66
2022/03/21 08:36:35;;;;;;;;;54.75;41.00;;;;;14.30;53.70;102517.44;5059212;28;45666;-66
2022/03/21 08:39:01;;;;;;;;;51.00;38.75;;;;;14.41;53.80;102511.19;5059514;28;45331;-67
2022/03/21 08:41:27;;;;;;;;;34.75;32.75;;;;;14.65;53.22;102518.69;5059338;28;45228;-67
2022/03/21 08:43:52;;;;;;;;;51.50;37.75;;;;;14.82;53.11;102519.28;5059425;28;45492;-67
2022/03/21 08:46:18;;;;;;;;;55.50;42.00;;;;;15.02;52.66;102528.56;5059425;28;45429;-67
2022/03/21 08:51:27;;;;;;;;;49.50;37.00;;;;;15.24;52.24;102529.91;5059167;28;45216;-67
2022/03/21 08:53:53;;;;;;;;;52.50;39.25;;;;;15.33;51.65;102523.63;5059434;28;45613;-67
2022/03/21 08:56:18;;;;;;;;;49.75;37.00;;;;;15.34;51.23;102526.22;5059106;28;45248;-67
2022/03/21 08:58:44;;;;;;;;;50.00;39.00;;;;;15.33;51.26;102527.09;5059151;28;45356;-67
2022/03/21 09:01:09;;;;;;;;;51.00;39.25;;;;;15.38;51.25;102524.38;5058986;28;46035;-67
2022/03/21 09:03:35;;;;;;;;;49.75;38.75;;;;;15.39;50.80;102518.25;5059050;28;45232;-67
2022/03/21 09:06:00;;;;;;;;;48.75;38.75;;;;;15.47;50.31;102522.47;5059157;28;45403;-68
2022/03/21 09:08:25;;;;;;;;;44.50;38.00;;;;;15.51;50.44;102516.28;5059121;28;46021;-67
2022/03/21 09:10:52;;;;;;;;;44.75;37.50;;;;;15.46;50.22;102520.75;5061149;28;45224;-67
2022/03/21 09:13:17;;;;;;;;;44.25;35.00;;;;;15.49;49.71;102518.06;5062808;28;45472;-67
2022/03/21 09:15:43;;;;;;;;;49.00;37.50;;;;;15.54;49.92;102520.59;5062456;28;45429;-67
2022/03/21 09:18:09;;;;;;;;;40.25;35.00;;;;;15.62;49.87;102515.25;5062281;28;46308;-67
2022/03/21 09:20:34;;;;;;;;;44.75;37.25;;;;;15.64;49.70;102514.31;5061923;28;45347;-67
2022/03/21 09:23:00;;;;;;;;;42.00;35.00;;;;;15.63;49.55;102516.97;5062804;28;45424;-67
2022/03/21 09:25:25;;;;;;;;;43.50;33.00;;;;;15.68;49.49;102520.34;5062345;28;45469;-67
2022/03/21 09:27:50;;;;;;;;;43.50;34.25;;;;;15.70;49.41;102508.06;5062168;28;45236;-67
2022/03/21 09:30:16;;;;;;;;;48.75;36.00;;;;;15.75;49.07;102507.09;5061802;28;45366;-67
2022/03/21 09:32:42;;;;;;;;;32.25;30.00;;;;;15.80;48.96;102502.59;5062496;28;45505;-67
2022/03/21 09:35:08;;;;;;;;;49.25;37.00;;;;;15.84;48.95;102510.41;5062031;28;45479;-67
2022/03/21 09:37:33;;;;;;;;;41.50;33.25;;;;;15.89;48.95;102506.78;5062432;28;45664;-67
2022/03/21 09:39:59;;;;;;;;;37.00;31.50;;;;;15.94;48.64;102504.94;5062014;28;45158;-67
2022/03/21 09:42:25;;;;;;;;;36.75;28.00;;;;;16.00;48.57;102510.03;5060843;28;45334;-67
2022/03/21 09:44:52;;;;;;;;;36.00;33.25;;;;;16.09;48.27;102511.63;5061961;28;45548;-67
2022/03/21 09:50:09;;;;;;;;;38.50;32.25;;;;;16.16;48.38;102512.31;5049957;28;45793;-67
2022/03/21 09:52:35;;;;;;;;;35.50;30.75;;;;;16.20;47.67;102506.09;5061949;28;45320;-67
2022/03/21 09:55:02;;;;;;;;;31.00;28.00;;;;;16.21;48.19;102511.31;5062035;28;45234;-67
2022/03/21 09:57:28;;;;;;;;;40.25;33.50;;;;;16.23;47.63;102492.94;5061497;28;45414;-67
2022/03/21 09:59:55;;;;;;;;;35.75;28.50;;;;;16.29;47.90;102480.53;5062282;28;45299;-67
2022/03/21 10:02:21;;;;;;;;;32.50;28.75;;;;;16.46;47.63;102489.78;5060277;28;45537;-67
2022/03/21 10:04:46;;;;;;;;;32.00;24.00;;;;;16.59;47.36;102483.31;5062083;28;45245;-67
2022/03/21 10:07:12;;;;;;;;;27.75;19.25;;;;;16.72;47.24;102490.88;5061553;28;45390;-67
2022/03/21 10:09:38;;;;;;;;;24.50;21.50;;;;;16.81;46.98;102488.91;5060671;28;45202;-67
2022/03/21 10:12:10;;;;;;;;;25.25;23.00;;;;;16.90;46.87;102489.56;5061666;28;45507;-67
2022/03/21 10:14:37;;;;;;;;;28.75;23.25;;;;;16.95;46.10;102482.41;5062129;28;45298;-67
2022/03/21 10:17:07;;;;;;;;;25.75;19.75;;;;;16.94;46.44;102487.72;5061290;28;46345;-67
2022/03/21 10:19:51;;;;;;;;;15.75;9.00;;;;;17.20;46.27;102493.13;5061836;28;45334;-67
2022/03/21 10:22:21;;;;;;;;;30.50;22.50;;;;;18.06;45.64;102493.31;5060183;28;45375;-66
2022/03/21 10:24:49;;;;;;;;;32.50;24.00;;;;;18.24;44.10;102485.72;5061717;28;45417;-67
2022/03/21 10:27:47;;;;;;;;;30.25;23.75;;;;;18.12;44.57;102477.34;5061101;28;45236;-67
2022/03/21 10:30:15;;;;;;;;;22.50;19.25;;;;;18.11;44.28;102486.16;5060784;28;45923;-67
2022/03/21 10:32:58;;;;;;;;;23.50;18.75;;;;;18.06;44.06;102481.03;5061519;28;45311;-67
2022/03/21 10:35:29;;;;;;;;;19.25;16.50;;;;;18.10;44.78;102479.16;5061278;28;45441;-67
2022/03/21 10:37:59;;;;;;;;;19.00;17.75;;;;;18.11;43.76;102473.00;5061363;28;45467;-67
2022/03/21 10:40:25;;;;;;;;;18.75;17.50;;;;;18.11;43.98;102484.38;5061163;28;45354;-67
2022/03/21 10:43:07;;;;;;;;;24.00;17.00;;;;;18.11;44.21;102470.34;5061076;28;45342;-67
2022/03/21 10:45:42;;;;;;;;;24.00;21.00;;;;;18.09;43.46;102466.91;5067493;28;45372;-67
2022/03/21 10:48:10;;;;;;;;;21.25;17.00;;;;;17.86;43.14;102463.22;5060386;28;46123;-67
2022/03/21 10:50:41;;;;;;;;;25.00;18.50;;;;;17.79;43.69;102471.31;5059640;28;45784;-67
2022/03/21 10:53:16;;;;;;;;;23.00;18.50;;;;;17.82;43.74;102466.88;5060872;28;45335;-67
2022/03/21 10:55:47;;;;;;;;;31.25;21.50;;;;;17.93;43.54;102470.00;5060630;28;45334;-67
2022/03/21 10:58:15;;;;;;;;;17.50;15.25;;;;;17.88;42.75;102458.78;5060010;28;47082;-67
2022/03/21 11:00:41;;;;;;;;;32.25;23.25;;;;;17.73;43.51;102461.00;5060674;28;45204;-67
2022/03/21 11:03:15;;;;;;;;;15.25;13.00;;;;;17.76;43.52;102472.28;5060137;28;45255;-67
2022/03/21 11:05:50;;;;;;;;;21.25;18.75;;;;;17.83;43.13;102458.06;5059946;28;45355;-67
2022/03/21 11:08:18;;;;;;;;;33.75;26.00;;;;;17.82;43.31;102456.34;5060689;28;45395;-67
2022/03/21 11:10:45;;;;;;;;;29.75;24.75;;;;;17.89;43.48;102457.00;5093061;27;45271;-64
2022/03/21 11:13:11;;;;;;;;;26.00;24.25;;;;;18.00;43.64;102451.41;5060743;28;45322;-67
2022/03/21 11:15:40;;;;;;;;;25.50;22.75;;;;;18.08;43.50;102458.16;5059481;28;45472;-64
2022/03/21 11:18:06;;;;;;;;;25.00;17.50;;;;;18.16;43.42;102455.28;5059909;28;46082;-64
2022/03/21 11:20:33;;;;;;;;;19.75;18.50;;;;;18.26;43.04;102450.59;5059779;28;45369;-64
2022/03/21 11:22:59;;;;;;;;;18.75;17.00;;;;;18.35;42.83;102451.16;5059254;28;45374;-63
2022/03/21 11:25:29;;;;;;;;;15.75;14.75;;;;;18.41;43.02;102448.31;5060086;28;45489;-63
2022/03/21 11:28:09;;;;;;;;;17.25;15.25;;;;;18.49;42.93;102445.44;5059816;28;46257;-62
2022/03/21 11:30:57;;;;;;;;;23.00;18.50;;;;;18.55;42.97;102432.91;5058930;28;45826;-62
2022/03/21 11:33:31;;;;;;;;;20.75;18.75;;;;;18.70;42.35;102435.97;5059527;28;45425;-63
2022/03/21 11:36:03;;;;;;;;;23.75;19.50;;;;;18.80;41.77;102432.09;5059816;28;45196;-63
2022/03/21 11:38:31;;;;;;;;;14.25;14.25;;;;;18.78;41.46;102437.41;5059336;28;45989;-63
2022/03/21 11:41:15;;;;;;;;;25.00;20.00;;;;;18.76;42.30;102422.59;5060264;28;45334;-64